createdAt,value
2017-06-04T00:00:24.905Z,1011.19
2017-06-04T00:01:27.116Z,1011.20
2017-06-04T00:02:29.028Z,1011.17
2017-06-04T00:03:30.877Z,1011.16
2017-06-04T00:04:32.728Z,1011.14
2017-06-04T00:05:34.643Z,1011.10
2017-06-04T00:06:36.554Z,1011.09
2017-06-04T00:07:38.467Z,1011.10
2017-06-04T00:08:52.624Z,1011.08
2017-06-04T00:09:54.534Z,1011.07
2017-06-04T00:10:56.446Z,1011.01
2017-06-04T00:11:58.358Z,1011.00
2017-06-04T00:13:00.205Z,1011.01
2017-06-04T00:14:02.055Z,1011.01
2017-06-04T00:15:03.964Z,1010.96
2017-06-04T00:16:05.876Z,1010.97
2017-06-04T00:17:07.991Z,1010.91
2017-06-04T00:18:22.146Z,1010.89
2017-06-04T00:19:24.054Z,1010.89
2017-06-04T00:20:25.964Z,1010.85
2017-06-04T00:21:27.875Z,1010.86
2017-06-04T00:22:29.724Z,1010.83
2017-06-04T00:23:31.576Z,1010.81
2017-06-04T00:24:33.485Z,1010.78
2017-06-04T00:25:35.395Z,1010.79
2017-06-04T00:26:37.307Z,1010.76
2017-06-04T00:27:51.661Z,1010.74
2017-06-04T00:28:53.575Z,1010.74
2017-06-04T00:29:55.488Z,1010.73
2017-06-04T00:30:57.399Z,1010.68
2017-06-04T00:31:59.248Z,1010.69
2017-06-04T00:33:01.198Z,1010.61
2017-06-04T00:34:03.111Z,1010.64
2017-06-04T00:35:05.025Z,1010.61
2017-06-04T00:36:06.941Z,1010.64
2017-06-04T00:37:21.096Z,1010.63
2017-06-04T00:38:23.010Z,1010.60
2017-06-04T00:39:24.925Z,1010.63
2017-06-04T00:40:26.837Z,1010.58
2017-06-04T00:41:28.687Z,1010.61
2017-06-04T00:42:30.538Z,1010.60
2017-06-04T00:43:32.648Z,1010.60
2017-06-04T00:44:34.561Z,1010.56
2017-06-04T00:45:36.472Z,1010.57
2017-06-04T00:46:50.622Z,1010.54
2017-06-04T00:47:52.532Z,1010.56
2017-06-04T00:48:54.642Z,1010.54
2017-06-04T00:49:56.555Z,1010.56
2017-06-04T00:50:58.405Z,1010.55
2017-06-04T00:52:00.257Z,1010.54
2017-06-04T00:53:02.170Z,1010.55
2017-06-04T00:54:04.180Z,1010.53
2017-06-04T00:55:06.096Z,1010.50
2017-06-04T00:56:20.249Z,1010.46
2017-06-04T00:57:22.160Z,1010.45
2017-06-04T00:58:24.092Z,1010.41
2017-06-04T00:59:25.978Z,1010.38
2017-06-04T01:00:27.830Z,1010.35
2017-06-04T01:01:29.682Z,1010.37
2017-06-04T01:02:31.592Z,1010.30
2017-06-04T01:03:44.618Z,1010.33
2017-06-04T01:04:46.529Z,1010.29
2017-06-04T01:05:48.440Z,1010.27
2017-06-04T01:06:50.351Z,1010.29
2017-06-04T01:07:52.203Z,1010.28
2017-06-04T01:08:54.051Z,1010.22
2017-06-04T01:09:56.062Z,1010.20
2017-06-04T01:10:57.975Z,1010.16
2017-06-04T01:11:59.888Z,1010.15
2017-06-04T01:13:14.043Z,1010.13
2017-06-04T01:14:15.953Z,1010.15
2017-06-04T01:15:17.862Z,1010.12
2017-06-04T01:16:19.772Z,1010.08
2017-06-04T01:17:21.621Z,1010.04
2017-06-04T01:18:23.473Z,1010.08
2017-06-04T01:19:25.381Z,1010.12
2017-06-04T01:20:27.292Z,1010.15
2017-06-04T01:21:29.203Z,1010.07
2017-06-04T01:22:43.351Z,1010.11
2017-06-04T01:23:45.262Z,1010.11
2017-06-04T01:24:47.173Z,1010.08
2017-06-04T01:25:49.382Z,1010.10
2017-06-04T01:26:51.230Z,1010.05
2017-06-04T01:27:53.080Z,1010.03
2017-06-04T01:28:54.993Z,1010.01
2017-06-04T01:29:56.907Z,1009.97
2017-06-04T01:30:58.914Z,1009.97
2017-06-04T01:32:13.117Z,1009.92
2017-06-04T01:33:15.025Z,1009.91
2017-06-04T01:34:16.935Z,1009.95
2017-06-04T01:35:18.845Z,1009.89
2017-06-04T01:36:20.895Z,1009.91
2017-06-04T01:37:22.750Z,1009.93
2017-06-04T01:38:24.657Z,1009.88
2017-06-04T01:39:26.570Z,1009.85
2017-06-04T01:40:28.483Z,1009.86
2017-06-04T01:41:42.686Z,1009.82
2017-06-04T01:42:44.598Z,1009.83
2017-06-04T01:43:46.510Z,1009.81
2017-06-04T01:44:48.421Z,1009.84
2017-06-04T01:45:50.273Z,1009.78
2017-06-04T01:46:52.525Z,1009.77
2017-06-04T01:47:54.437Z,1009.77
2017-06-04T01:48:56.350Z,1009.72
2017-06-04T01:49:58.266Z,1009.74
2017-06-04T01:51:12.516Z,1009.70
2017-06-04T01:52:14.427Z,1009.68
2017-06-04T01:53:16.337Z,1009.68
2017-06-04T01:54:18.247Z,1009.68
2017-06-04T01:55:20.098Z,1009.65
2017-06-04T01:56:21.949Z,1009.67
2017-06-04T01:57:24.262Z,1009.62
2017-06-04T01:58:26.174Z,1009.61
2017-06-04T01:59:28.086Z,1009.68
2017-06-04T02:00:42.287Z,1009.58
2017-06-04T02:01:44.199Z,1009.63
2017-06-04T02:02:46.111Z,1009.60
2017-06-04T02:03:48.025Z,1009.56
2017-06-04T02:04:49.874Z,1009.60
2017-06-04T02:05:51.724Z,1009.59
2017-06-04T02:06:53.636Z,1009.58
2017-06-04T02:07:55.847Z,1009.59
2017-06-04T02:08:57.757Z,1009.57
2017-06-04T02:10:11.961Z,1009.57
2017-06-04T02:11:13.870Z,1009.54
2017-06-04T02:12:15.781Z,1009.57
2017-06-04T02:13:17.791Z,1009.58
2017-06-04T02:14:19.642Z,1009.56
2017-06-04T02:15:21.492Z,1009.62
2017-06-04T02:16:23.401Z,1009.58
2017-06-04T02:17:25.313Z,1009.59
2017-06-04T02:18:27.426Z,1009.54
2017-06-04T02:19:41.580Z,1009.59
2017-06-04T02:20:43.489Z,1009.55
2017-06-04T02:21:45.399Z,1009.51
2017-06-04T02:22:47.310Z,1009.55
2017-06-04T02:23:49.161Z,1009.50
2017-06-04T02:24:51.013Z,1009.50
2017-06-04T02:25:52.923Z,1009.45
2017-06-04T02:26:54.833Z,1009.49
2017-06-04T02:27:56.704Z,1009.50
2017-06-04T02:29:11.256Z,1009.47
2017-06-04T02:30:13.169Z,1009.50
2017-06-04T02:31:15.080Z,1009.47
2017-06-04T02:32:16.993Z,1009.45
2017-06-04T02:33:18.844Z,1009.48
2017-06-04T02:34:20.694Z,1009.41
2017-06-04T02:35:22.607Z,1009.38
2017-06-04T02:36:24.520Z,1009.35
2017-06-04T02:37:26.434Z,1009.38
2017-06-04T02:38:40.989Z,1009.37
2017-06-04T02:39:42.901Z,1009.33
2017-06-04T02:40:44.812Z,1009.32
2017-06-04T02:41:46.722Z,1009.27
2017-06-04T02:42:48.572Z,1009.23
2017-06-04T02:43:50.423Z,1009.25
2017-06-04T02:44:52.336Z,1009.19
2017-06-04T02:45:54.248Z,1009.19
2017-06-04T02:46:56.164Z,1009.20
2017-06-04T02:48:10.319Z,1009.15
2017-06-04T02:49:12.229Z,1009.19
2017-06-04T02:50:14.241Z,1009.21
2017-06-04T02:51:16.153Z,1009.17
2017-06-04T02:52:18.007Z,1009.19
2017-06-04T02:53:19.856Z,1009.19
2017-06-04T02:54:21.768Z,1009.23
2017-06-04T02:55:23.679Z,1009.25
2017-06-04T02:56:25.589Z,1009.26
2017-06-04T02:57:39.748Z,1009.22
2017-06-04T02:58:41.659Z,1009.23
2017-06-04T02:59:43.570Z,1009.28
2017-06-04T03:00:45.782Z,1009.22
2017-06-04T03:01:47.633Z,1009.27
2017-06-04T03:02:49.486Z,1009.26
2017-06-04T03:03:51.397Z,1009.26
2017-06-04T03:04:53.311Z,1009.22
2017-06-04T03:05:55.327Z,1009.21
2017-06-04T03:07:09.484Z,1009.20
2017-06-04T03:08:11.396Z,1009.18
2017-06-04T03:09:13.309Z,1009.17
2017-06-04T03:10:15.220Z,1009.18
2017-06-04T03:11:17.071Z,1009.13
2017-06-04T03:12:18.926Z,1009.11
2017-06-04T03:13:20.840Z,1009.14
2017-06-04T03:14:22.754Z,1009.11
2017-06-04T03:15:24.670Z,1009.07
2017-06-04T03:16:39.126Z,1009.09
2017-06-04T03:17:41.040Z,1009.12
2017-06-04T03:18:42.952Z,1009.05
2017-06-04T03:19:44.869Z,1009.05
2017-06-04T03:20:46.724Z,1009.06
2017-06-04T03:21:48.580Z,1009.05
2017-06-04T03:22:50.496Z,1009.01
2017-06-04T03:23:52.412Z,1009.06
2017-06-04T03:24:54.325Z,1009.03
2017-06-04T03:26:08.580Z,1008.97
2017-06-04T03:27:10.492Z,1008.99
2017-06-04T03:28:12.404Z,1008.95
2017-06-04T03:29:14.317Z,1008.99
2017-06-04T03:30:16.171Z,1008.98
2017-06-04T03:31:18.025Z,1008.98
2017-06-04T03:32:20.241Z,1009.01
2017-06-04T03:33:22.156Z,1009.01
2017-06-04T03:34:24.071Z,1008.93
2017-06-04T03:35:38.279Z,1008.98
2017-06-04T03:36:40.193Z,1008.96
2017-06-04T03:37:42.109Z,1008.97
2017-06-04T03:38:44.020Z,1009.01
2017-06-04T03:39:45.876Z,1009.01
2017-06-04T03:40:47.727Z,1009.04
2017-06-04T03:41:49.645Z,1009.01
2017-06-04T03:42:51.862Z,1009.04
2017-06-04T03:43:53.775Z,1009.06
2017-06-04T03:45:07.980Z,1009.09
2017-06-04T03:46:09.894Z,1009.10
2017-06-04T03:47:11.807Z,1009.09
2017-06-04T03:48:13.823Z,1009.13
2017-06-04T03:49:15.678Z,1009.13
2017-06-04T03:50:17.532Z,1009.15
2017-06-04T03:51:19.448Z,1009.14
2017-06-04T03:52:21.364Z,1009.20
2017-06-04T03:53:23.577Z,1009.22
2017-06-04T03:54:37.785Z,1009.19
2017-06-04T03:55:39.700Z,1009.20
2017-06-04T03:56:41.614Z,1009.19
2017-06-04T03:57:43.528Z,1009.22
2017-06-04T03:58:45.383Z,1009.20
2017-06-04T03:59:47.235Z,1009.16
2017-06-04T04:00:49.150Z,1009.22
2017-06-04T04:01:51.065Z,1009.21
2017-06-04T04:02:52.987Z,1009.23
2017-06-04T04:04:07.186Z,1009.22
2017-06-04T04:05:09.102Z,1009.23
2017-06-04T04:06:11.017Z,1009.19
2017-06-04T04:07:12.936Z,1009.18
2017-06-04T04:08:14.791Z,1009.16
2017-06-04T04:09:16.747Z,1009.13
2017-06-04T04:10:18.662Z,1009.11
2017-06-04T04:11:20.578Z,1009.10
2017-06-04T04:12:22.494Z,1009.07
2017-06-04T04:13:36.653Z,1009.10
2017-06-04T04:14:38.565Z,1009.07
2017-06-04T04:15:40.479Z,1009.08
2017-06-04T04:16:42.397Z,1009.09
2017-06-04T04:17:44.251Z,1009.06
2017-06-04T04:18:46.111Z,1009.04
2017-06-04T04:19:48.373Z,1009.00
2017-06-04T04:20:50.288Z,1009.03
2017-06-04T04:21:52.203Z,1009.07
2017-06-04T04:23:06.407Z,1009.04
2017-06-04T04:24:08.325Z,1009.08
2017-06-04T04:25:10.242Z,1009.07
2017-06-04T04:26:12.160Z,1009.13
2017-06-04T04:27:14.014Z,1009.11
2017-06-04T04:28:15.870Z,1009.12
2017-06-04T04:29:17.790Z,1009.12
2017-06-04T04:30:19.803Z,1009.12
2017-06-04T04:31:21.731Z,1009.08
2017-06-04T04:32:35.853Z,1009.02
2017-06-04T04:33:37.769Z,1009.02
2017-06-04T04:34:39.687Z,1009.01
2017-06-04T04:35:41.602Z,1009.01
2017-06-04T04:36:43.456Z,1008.99
2017-06-04T04:37:45.311Z,1009.01
2017-06-04T04:38:47.226Z,1008.99
2017-06-04T04:39:49.141Z,1008.96
2017-06-04T04:40:51.259Z,1008.99
2017-06-04T04:42:05.468Z,1009.02
2017-06-04T04:43:07.383Z,1009.03
2017-06-04T04:44:09.300Z,1008.99
2017-06-04T04:45:11.215Z,1009.05
2017-06-04T04:46:13.070Z,1009.06
2017-06-04T04:47:14.925Z,1009.12
2017-06-04T04:48:16.841Z,1009.16
2017-06-04T04:49:18.756Z,1009.23
2017-06-04T04:50:20.670Z,1009.39
2017-06-04T04:51:34.930Z,1009.52
2017-06-04T04:52:36.842Z,1009.53
2017-06-04T04:53:38.756Z,1009.55
2017-06-04T04:54:40.678Z,1009.54
2017-06-04T04:55:42.536Z,1009.64
2017-06-04T04:56:44.691Z,1009.66
2017-06-04T04:57:46.611Z,1009.80
2017-06-04T04:58:48.529Z,1009.77
2017-06-04T04:59:50.448Z,1009.85
2017-06-04T05:01:04.655Z,1009.87
2017-06-04T05:02:06.572Z,1009.89
2017-06-04T05:03:08.489Z,1009.91
2017-06-04T05:04:10.408Z,1009.96
2017-06-04T05:05:12.263Z,1010.02
2017-06-04T05:06:14.121Z,1010.09
2017-06-04T05:07:16.036Z,1010.15
2017-06-04T05:08:17.955Z,1010.15
2017-06-04T05:09:19.871Z,1010.15
2017-06-04T05:10:34.079Z,1010.13
2017-06-04T05:11:35.996Z,1010.08
2017-06-04T05:12:38.015Z,1010.13
2017-06-04T05:13:39.932Z,1010.08
2017-06-04T05:14:41.786Z,1010.10
2017-06-04T05:15:43.644Z,1010.16
2017-06-04T05:16:45.561Z,1010.16
2017-06-04T05:17:47.477Z,1010.21
2017-06-04T05:18:49.397Z,1010.21
2017-06-04T05:20:03.603Z,1010.28
2017-06-04T05:21:05.522Z,1010.28
2017-06-04T05:22:07.438Z,1010.32
2017-06-04T05:23:09.708Z,1010.33
2017-06-04T05:24:11.562Z,1010.37
2017-06-04T05:25:13.420Z,1010.34
2017-06-04T05:26:15.335Z,1010.35
2017-06-04T05:27:17.255Z,1010.35
2017-06-04T05:28:19.170Z,1010.40
2017-06-04T05:29:33.330Z,1010.45
2017-06-04T05:30:35.246Z,1010.51
2017-06-04T05:31:37.166Z,1010.45
2017-06-04T05:32:39.086Z,1010.47
2017-06-04T05:33:41.041Z,1010.41
2017-06-04T05:34:42.897Z,1010.46
2017-06-04T05:35:44.816Z,1010.48
2017-06-04T05:36:46.732Z,1010.49
2017-06-04T05:37:48.652Z,1010.49
2017-06-04T05:39:03.163Z,1010.58
2017-06-04T05:40:05.079Z,1010.58
2017-06-04T05:41:06.997Z,1010.61
2017-06-04T05:42:08.924Z,1010.56
2017-06-04T05:43:10.772Z,1010.54
2017-06-04T05:44:12.631Z,1010.52
2017-06-04T05:45:14.553Z,1010.49
2017-06-04T05:46:16.466Z,1010.47
2017-06-04T05:47:18.384Z,1010.42
2017-06-04T05:48:33.043Z,1010.41
2017-06-04T05:49:34.961Z,1010.41
2017-06-04T05:50:36.984Z,1010.40
2017-06-04T05:51:39.401Z,1010.35
2017-06-04T05:52:41.263Z,1010.37
2017-06-04T05:53:43.093Z,1010.39
2017-06-04T05:54:45.113Z,1010.40
2017-06-04T05:55:47.029Z,1010.41
2017-06-04T05:56:49.008Z,1010.39
2017-06-04T05:58:03.359Z,1010.34
2017-06-04T05:59:05.340Z,1010.33
2017-06-04T06:00:07.489Z,1010.30
2017-06-04T06:01:09.439Z,1010.29
2017-06-04T06:02:11.436Z,1010.28
2017-06-04T06:03:13.838Z,1010.32
2017-06-04T06:04:16.096Z,1010.34
2017-06-04T06:05:18.605Z,1010.35
2017-06-04T06:06:21.145Z,1010.39
2017-06-04T06:07:35.385Z,1010.40
2017-06-04T06:08:37.301Z,1010.37
2017-06-04T06:09:39.224Z,1010.37
2017-06-04T06:10:41.141Z,1010.31
2017-06-04T06:11:42.999Z,1010.41
2017-06-04T06:12:44.857Z,1010.46
2017-06-04T06:13:46.773Z,1010.53
2017-06-04T06:14:48.701Z,1010.56
2017-06-04T06:15:50.768Z,1010.58
2017-06-04T06:17:04.941Z,1010.60
2017-06-04T06:18:06.862Z,1010.65
2017-06-04T06:19:08.766Z,1010.67
2017-06-04T06:20:10.684Z,1010.65
2017-06-04T06:21:12.741Z,1010.74
2017-06-04T06:22:14.601Z,1010.77
2017-06-04T06:23:16.518Z,1010.79
2017-06-04T06:24:18.438Z,1010.77
2017-06-04T06:25:20.357Z,1010.78
2017-06-04T06:26:34.519Z,1010.74
2017-06-04T06:27:36.435Z,1010.76
2017-06-04T06:28:38.355Z,1010.73
2017-06-04T06:29:40.279Z,1010.71
2017-06-04T06:30:42.134Z,1010.66
2017-06-04T06:31:44.191Z,1010.62
2017-06-04T06:32:46.110Z,1010.63
2017-06-04T06:33:48.029Z,1010.63
2017-06-04T06:34:49.959Z,1010.60
2017-06-04T06:36:04.368Z,1010.53
2017-06-04T06:37:06.284Z,1010.53
2017-06-04T06:38:08.202Z,1010.52
2017-06-04T06:39:10.119Z,1010.54
2017-06-04T06:40:11.978Z,1010.51
2017-06-04T06:41:13.835Z,1010.48
2017-06-04T06:42:15.754Z,1010.48
2017-06-04T06:43:17.667Z,1010.51
2017-06-04T06:44:19.587Z,1010.42
2017-06-04T06:45:33.749Z,1010.41
2017-06-04T06:46:35.669Z,1010.37
2017-06-04T06:47:38.209Z,1010.36
2017-06-04T06:48:40.096Z,1010.32
2017-06-04T06:49:41.962Z,1010.23
2017-06-04T06:50:43.817Z,1010.17
2017-06-04T06:51:45.733Z,1010.13
2017-06-04T06:52:47.650Z,1010.07
2017-06-04T06:53:49.571Z,1010.07
2017-06-04T06:55:03.900Z,1010.03
2017-06-04T06:56:05.814Z,1009.98
2017-06-04T06:57:07.733Z,1010.00
2017-06-04T06:58:09.649Z,1010.02
2017-06-04T06:59:11.534Z,1010.13
2017-06-04T07:00:13.389Z,1010.22
2017-06-04T07:01:15.307Z,1010.28
2017-06-04T07:02:17.222Z,1010.33
2017-06-04T07:03:19.139Z,1010.35
2017-06-04T07:04:33.463Z,1010.29
2017-06-04T07:05:35.379Z,1010.24
2017-06-04T07:06:37.297Z,1010.23
2017-06-04T07:07:39.212Z,1010.23
2017-06-04T07:08:41.235Z,1010.23
2017-06-04T07:09:43.091Z,1010.28
2017-06-04T07:10:45.010Z,1010.35
2017-06-04T07:11:46.925Z,1010.34
2017-06-04T07:12:48.840Z,1010.34
2017-06-04T07:14:03.004Z,1010.35
2017-06-04T07:15:04.919Z,1010.34
2017-06-04T07:16:06.845Z,1010.32
2017-06-04T07:17:08.753Z,1010.31
2017-06-04T07:18:10.611Z,1010.33
2017-06-04T07:19:12.716Z,1010.34
2017-06-04T07:20:14.635Z,1010.33
2017-06-04T07:21:16.555Z,1010.36
2017-06-04T07:22:18.475Z,1010.35
2017-06-04T07:23:32.637Z,1010.36
2017-06-04T07:24:34.553Z,1010.32
2017-06-04T07:25:36.472Z,1010.37
2017-06-04T07:26:38.401Z,1010.37
2017-06-04T07:27:40.241Z,1010.38
2017-06-04T07:28:42.097Z,1010.39
2017-06-04T07:29:44.118Z,1010.41
2017-06-04T07:30:46.036Z,1010.37
2017-06-04T07:31:47.994Z,1010.33
2017-06-04T07:33:02.601Z,1010.34
2017-06-04T07:34:04.979Z,1010.36
2017-06-04T07:35:07.563Z,1010.40
2017-06-04T07:36:09.784Z,1010.43
2017-06-04T07:37:12.210Z,1010.45
2017-06-04T07:38:14.450Z,1010.45
2017-06-04T07:39:16.499Z,1010.41
2017-06-04T07:40:18.416Z,1010.42
2017-06-04T07:41:20.334Z,1010.44
2017-06-04T07:42:34.497Z,1010.43
2017-06-04T07:43:36.437Z,1010.47
2017-06-04T07:44:38.331Z,1010.45
2017-06-04T07:45:40.449Z,1010.47
2017-06-04T07:46:42.307Z,1010.44
2017-06-04T07:47:44.167Z,1010.42
2017-06-04T07:48:46.086Z,1010.42
2017-06-04T07:49:48.007Z,1010.42
2017-06-04T07:50:50.377Z,1010.41
2017-06-04T07:52:04.547Z,1010.41
2017-06-04T07:53:06.462Z,1010.37
2017-06-04T07:54:08.381Z,1010.38
2017-06-04T07:55:10.307Z,1010.40
2017-06-04T07:56:12.212Z,1010.40
2017-06-04T07:57:14.072Z,1010.37
2017-06-04T07:58:15.991Z,1010.33
2017-06-04T07:59:17.916Z,1010.29
2017-06-04T08:00:19.835Z,1010.24
2017-06-04T08:01:34.054Z,1010.24
2017-06-04T08:02:35.966Z,1010.22
2017-06-04T08:03:37.885Z,1010.17
2017-06-04T08:04:39.804Z,1010.18
2017-06-04T08:05:41.665Z,1010.12
2017-06-04T08:06:43.528Z,1010.19
2017-06-04T08:07:45.451Z,1010.27
2017-06-04T08:08:47.372Z,1010.34
2017-06-04T08:09:49.289Z,1010.43
2017-06-04T08:11:03.554Z,1010.51
2017-06-04T08:12:05.478Z,1010.54
2017-06-04T08:13:07.393Z,1010.56
2017-06-04T08:14:09.313Z,1010.52
2017-06-04T08:15:11.176Z,1010.51
2017-06-04T08:16:13.038Z,1010.49
2017-06-04T08:17:14.964Z,1010.46
2017-06-04T08:18:16.881Z,1010.50
2017-06-04T08:19:18.763Z,1010.48
2017-06-04T08:20:32.927Z,1010.46
2017-06-04T08:21:34.847Z,1010.47
2017-06-04T08:22:36.771Z,1010.44
2017-06-04T08:23:39.192Z,1010.44
2017-06-04T08:24:41.313Z,1010.42
2017-06-04T08:25:43.174Z,1010.39
2017-06-04T08:26:45.100Z,1010.36
2017-06-04T08:27:47.018Z,1010.32
2017-06-04T08:28:48.940Z,1010.34
2017-06-04T08:30:03.106Z,1010.43
2017-06-04T08:31:05.027Z,1010.40
2017-06-04T08:32:06.951Z,1010.45
2017-06-04T08:33:08.976Z,1010.49
2017-06-04T08:34:10.944Z,1010.50
2017-06-04T08:35:12.808Z,1010.53
2017-06-04T08:36:14.732Z,1010.58
2017-06-04T08:37:16.654Z,1010.62
2017-06-04T08:38:18.579Z,1010.59
2017-06-04T08:39:32.747Z,1010.64
2017-06-04T08:40:34.669Z,1010.63
2017-06-04T08:41:36.593Z,1010.68
2017-06-04T08:42:38.520Z,1010.65
2017-06-04T08:43:40.382Z,1010.66
2017-06-04T08:44:42.245Z,1010.64
2017-06-04T08:45:44.169Z,1010.63
2017-06-04T08:46:46.090Z,1010.63
2017-06-04T08:47:48.013Z,1010.63
2017-06-04T08:49:02.230Z,1010.60
2017-06-04T08:50:04.156Z,1010.58
2017-06-04T08:51:06.085Z,1010.54
2017-06-04T08:52:08.015Z,1010.51
2017-06-04T08:53:09.875Z,1010.48
2017-06-04T08:54:11.990Z,1010.40
2017-06-04T08:55:13.915Z,1010.39
2017-06-04T08:56:15.839Z,1010.38
2017-06-04T08:57:17.768Z,1010.38
2017-06-04T08:58:31.939Z,1010.36
2017-06-04T08:59:33.861Z,1010.36
2017-06-04T09:00:35.785Z,1010.30
2017-06-04T09:01:37.709Z,1010.32
2017-06-04T09:02:39.575Z,1010.30
2017-06-04T09:03:41.440Z,1010.28
2017-06-04T09:04:43.671Z,1010.27
2017-06-04T09:05:45.583Z,1010.28
2017-06-04T09:06:47.917Z,1010.34
2017-06-04T09:08:02.094Z,1010.34
2017-06-04T09:09:04.014Z,1010.36
2017-06-04T09:10:09.143Z,1010.41
2017-06-04T09:11:11.535Z,1010.29
2017-06-04T09:12:13.391Z,1010.23
2017-06-04T09:13:15.256Z,1010.19
2017-06-04T09:14:17.179Z,1010.18
2017-06-04T09:15:19.303Z,1010.17
2017-06-04T09:16:21.229Z,1010.21
2017-06-04T09:17:35.395Z,1010.15
2017-06-04T09:18:37.319Z,1010.24
2017-06-04T09:19:39.241Z,1010.22
2017-06-04T09:20:41.364Z,1010.25
2017-06-04T09:21:43.234Z,1010.28
2017-06-04T09:22:45.088Z,1010.26
2017-06-04T09:23:47.023Z,1010.18
2017-06-04T09:24:49.295Z,1010.23
2017-06-04T09:25:51.174Z,1010.26
2017-06-04T09:27:05.342Z,1010.37
2017-06-04T09:28:07.266Z,1010.40
2017-06-04T09:29:09.189Z,1010.40
2017-06-04T09:30:11.119Z,1010.39
2017-06-04T09:31:15.978Z,1010.29
2017-06-04T09:32:17.842Z,1010.33
2017-06-04T09:33:19.766Z,1010.42
2017-06-04T09:34:21.690Z,1010.46
2017-06-04T09:35:23.616Z,1010.44
2017-06-04T09:36:37.884Z,1010.50
2017-06-04T09:37:39.805Z,1010.54
2017-06-04T09:38:41.730Z,1010.57
2017-06-04T09:39:43.654Z,1010.53
2017-06-04T09:40:45.519Z,1010.45
2017-06-04T09:41:47.581Z,1010.46
2017-06-04T09:42:49.505Z,1010.48
2017-06-04T09:43:51.431Z,1010.46
2017-06-04T09:44:53.353Z,1010.39
2017-06-04T09:46:07.819Z,1010.40
2017-06-04T09:47:09.742Z,1010.41
2017-06-04T09:48:12.646Z,1010.43
2017-06-04T09:49:27.915Z,1010.45
2017-06-04T09:50:12.598Z,1010.45
2017-06-04T09:51:41.173Z,1010.35
2017-06-04T09:52:56.814Z,1010.25
2017-06-04T09:54:00.327Z,1010.33
2017-06-04T09:54:45.015Z,1010.36
2017-06-04T09:55:48.149Z,1010.32
2017-06-04T09:57:10.261Z,1010.35
2017-06-04T09:58:38.837Z,1010.33
2017-06-04T09:59:42.288Z,1010.30
2017-06-04T10:00:57.867Z,1010.27
2017-06-04T10:01:42.549Z,1010.27
2017-06-04T10:02:48.112Z,1010.30
2017-06-04T10:03:33.223Z,1010.31
2017-06-04T10:04:36.371Z,1010.29
2017-06-04T10:05:51.703Z,1010.29
2017-06-04T10:06:36.931Z,1010.32
2017-06-04T10:07:40.082Z,1010.34
2017-06-04T10:08:43.604Z,1010.37
2017-06-04T10:09:49.695Z,1010.41
2017-06-04T10:10:53.187Z,1010.46
2017-06-04T10:11:59.063Z,1010.43
2017-06-04T10:12:44.121Z,1010.43
2017-06-04T10:13:48.437Z,1010.36
2017-06-04T10:14:54.099Z,1010.33
2017-06-04T10:15:38.782Z,1010.37
2017-06-04T10:16:44.719Z,1010.38
2017-06-04T10:18:00.359Z,1010.42
2017-06-04T10:18:45.041Z,1010.39
2017-06-04T10:19:48.552Z,1010.37
2017-06-04T10:20:54.828Z,1010.32
2017-06-04T10:21:57.968Z,1010.33
2017-06-04T10:23:13.549Z,1010.33
2017-06-04T10:23:58.232Z,1010.34
2017-06-04T10:25:26.845Z,1010.38
2017-06-04T10:26:30.358Z,1010.26
2017-06-04T10:27:45.019Z,1010.23
2017-06-04T10:29:13.535Z,1010.26
2017-06-04T10:29:58.220Z,1010.27
2017-06-04T10:31:26.830Z,1010.33
2017-06-04T10:32:30.439Z,1010.38
2017-06-04T10:33:33.953Z,1010.41
2017-06-04T10:34:18.635Z,1010.38
2017-06-04T10:35:22.147Z,1010.39
2017-06-04T10:36:25.663Z,1010.35
2017-06-04T10:37:10.344Z,1010.34
2017-06-04T10:37:58.229Z,1010.45
2017-06-04T10:39:01.366Z,1010.39
2017-06-04T10:39:46.049Z,1010.36
2017-06-04T10:40:48.183Z,1010.38
2017-06-04T10:41:32.865Z,1010.39
2017-06-04T10:42:36.369Z,1010.39
2017-06-04T10:43:52.010Z,1010.40
2017-06-04T10:44:55.524Z,1010.43
2017-06-04T10:45:40.257Z,1010.40
2017-06-04T10:46:42.786Z,1010.41
2017-06-04T10:47:51.958Z,1010.38
2017-06-04T10:48:36.992Z,1010.37
2017-06-04T10:49:39.894Z,1010.45
2017-06-04T10:50:24.535Z,1010.48
2017-06-04T10:51:28.047Z,1010.48
2017-06-04T10:52:31.559Z,1010.38
2017-06-04T10:53:47.205Z,1010.32
2017-06-04T10:54:50.659Z,1010.26
2017-06-04T10:55:35.345Z,1010.34
2017-06-04T10:56:40.905Z,1010.36
2017-06-04T10:57:25.589Z,1010.30
2017-06-04T10:58:10.269Z,1010.26
2017-06-04T10:59:16.208Z,1010.25
2017-06-04T11:00:00.890Z,1010.29
2017-06-04T11:01:05.216Z,1010.16
2017-06-04T11:02:08.727Z,1010.12
2017-06-04T11:03:24.366Z,1010.02
2017-06-04T11:04:09.133Z,1010.02
2017-06-04T11:04:53.815Z,1010.09
2017-06-04T11:05:56.715Z,1009.99
2017-06-04T11:07:12.717Z,1009.89
2017-06-04T11:08:41.014Z,1009.89
2017-06-04T11:09:25.718Z,1009.90
2017-06-04T11:10:10.443Z,1009.92
2017-06-04T11:11:14.809Z,1009.84
2017-06-04T11:12:17.366Z,1009.85
2017-06-04T11:13:45.978Z,1009.77
2017-06-04T11:14:51.853Z,1009.67
2017-06-04T11:15:36.533Z,1009.56
2017-06-04T11:16:21.215Z,1009.49
2017-06-04T11:17:24.318Z,1009.50
2017-06-04T11:18:08.999Z,1009.51
2017-06-04T11:18:53.689Z,1009.50
2017-06-04T11:19:57.306Z,1009.54
2017-06-04T11:21:00.453Z,1009.65
2017-06-04T11:22:03.956Z,1009.73
2017-06-04T11:23:19.532Z,1009.78
2017-06-04T11:24:04.213Z,1009.82
2017-06-04T11:25:07.722Z,1009.88
2017-06-04T11:25:52.403Z,1009.90
2017-06-04T11:26:56.722Z,1009.96
2017-06-04T11:28:12.363Z,1010.03
2017-06-04T11:29:28.003Z,1010.01
2017-06-04T11:30:31.449Z,1009.97
2017-06-04T11:31:16.134Z,1010.04
2017-06-04T11:32:22.066Z,1010.08
2017-06-04T11:33:10.052Z,1010.09
2017-06-04T11:34:13.559Z,1010.07
2017-06-04T11:34:58.238Z,1010.15
2017-06-04T11:36:01.371Z,1010.19
2017-06-04T11:36:46.049Z,1010.19
2017-06-04T11:37:49.616Z,1010.13
2017-06-04T11:38:53.204Z,1010.15
2017-06-04T11:39:56.706Z,1010.09
2017-06-04T11:40:58.567Z,1010.07
2017-06-04T11:42:00.426Z,1010.18
2017-06-04T11:43:02.342Z,1010.00
2017-06-04T11:44:04.267Z,1010.12
2017-06-04T11:45:06.175Z,1010.10
2017-06-04T11:46:20.670Z,1010.19
2017-06-04T11:47:22.561Z,1010.19
2017-06-04T11:48:24.585Z,1010.11
2017-06-04T11:49:26.650Z,1010.21
2017-06-04T11:50:28.505Z,1010.39
2017-06-04T11:51:30.364Z,1010.37
2017-06-04T11:52:32.305Z,1010.41
2017-06-04T11:53:34.190Z,1010.61
2017-06-04T11:54:36.107Z,1010.96
2017-06-04T11:55:50.318Z,1010.58
2017-06-04T11:56:52.238Z,1011.14
2017-06-04T11:57:54.152Z,1011.18
2017-06-04T11:58:56.090Z,1011.43
2017-06-04T11:59:57.947Z,1011.76
2017-06-04T12:00:59.804Z,1011.59
2017-06-04T12:02:01.728Z,1011.67
2017-06-04T12:03:03.641Z,1011.85
2017-06-04T12:04:05.560Z,1011.80
2017-06-04T12:05:19.821Z,1011.64
2017-06-04T12:06:21.736Z,1011.65
2017-06-04T12:07:23.654Z,1011.60
2017-06-04T12:08:25.571Z,1011.63
2017-06-04T12:09:27.430Z,1011.65
2017-06-04T12:10:29.487Z,1011.56
2017-06-04T12:11:31.404Z,1011.57
2017-06-04T12:12:33.321Z,1011.51
2017-06-04T12:13:35.232Z,1011.64
2017-06-04T12:14:49.389Z,1011.83
2017-06-04T12:15:51.301Z,1011.85
2017-06-04T12:16:53.237Z,1011.72
2017-06-04T12:17:55.156Z,1011.75
2017-06-04T12:18:57.008Z,1011.80
2017-06-04T12:19:58.864Z,1011.72
2017-06-04T12:21:00.782Z,1011.77
2017-06-04T12:22:02.697Z,1011.77
2017-06-04T12:23:04.621Z,1011.84
2017-06-04T12:24:18.777Z,1011.80
2017-06-04T12:25:20.693Z,1011.78
2017-06-04T12:26:22.612Z,1011.76
2017-06-04T12:27:24.525Z,1011.68
2017-06-04T12:28:26.382Z,1011.63
2017-06-04T12:29:28.237Z,1011.58
2017-06-04T12:30:30.177Z,1011.68
2017-06-04T12:31:32.090Z,1011.71
2017-06-04T12:32:35.221Z,1011.59
2017-06-04T12:33:50.356Z,1011.61
2017-06-04T12:34:52.272Z,1011.49
2017-06-04T12:35:54.187Z,1011.50
2017-06-04T12:36:57.718Z,1011.54
2017-06-04T12:38:00.552Z,1011.57
2017-06-04T12:39:02.404Z,1011.62
2017-06-04T12:40:04.523Z,1011.72
2017-06-04T12:41:10.075Z,1011.82